Time;durP1;ratioP1;P1;durP2;ratioP2;P2;SDS_P1;SDS_P2;PMS_P1;PMS_P2;Temp;Humidity;BMP_temperature;BMP_pressure;BME280_temperature;BME280_humidity;BME280_pressure;Samples;Min_cycle;Max_cycle;Signal;HPM_P1;HPM_P2
2023/03/18 00:00:47;;;;;;;8.95;5.10;;;;;;;11.96;100.00;99695.97;5046314;28;20029;-57
2023/03/18 00:03:12;;;;;;;8.40;5.97;;;;;;;11.97;100.00;99693.06;5048263;28;20040;-53
2023/03/18 00:05:38;;;;;;;9.52;4.25;;;;;;;11.92;100.00;99695.56;5049504;28;20057;-57
2023/03/18 00:08:05;;;;;;;13.82;5.90;;;;;;;11.96;100.00;99691.47;5044073;28;20029;-54
2023/03/18 00:10:32;;;;;;;9.88;5.57;;;;;;;12.10;100.00;99691.31;5042747;28;20037;-57
2023/03/18 00:12:58;;;;;;;12.80;6.95;;;;;;;12.13;100.00;99699.69;5050265;28;20466;-54
2023/03/18 00:15:24;;;;;;;12.07;5.63;;;;;;;12.06;100.00;99692.81;5050417;28;20385;-53
2023/03/18 00:17:49;;;;;;;15.77;7.45;;;;;;;11.98;100.00;99691.25;5057163;28;20024;-57
2023/03/18 00:20:17;;;;;;;11.93;6.15;;;;;;;11.97;100.00;99694.91;5046954;28;20052;-56
2023/03/18 00:22:44;;;;;;;10.88;6.47;;;;;;;11.92;100.00;99700.88;5047793;28;20025;-58
2023/03/18 00:25:12;;;;;;;11.15;5.80;;;;;;;11.88;100.00;99698.91;5046637;28;20031;-57
2023/03/18 00:27:38;;;;;;;11.52;6.63;;;;;;;11.88;100.00;99697.06;5046945;28;20020;-57
2023/03/18 00:30:06;;;;;;;9.10;5.90;;;;;;;11.90;100.00;99689.69;5047690;28;20021;-58
2023/03/18 00:32:31;;;;;;;10.95;5.43;;;;;;;11.88;100.00;99696.25;5048940;28;20106;-57
2023/03/18 00:34:57;;;;;;;11.68;5.75;;;;;;;11.81;100.00;99690.94;5045744;28;20497;-56
2023/03/18 00:37:30;;;;;;;7.80;5.00;;;;;;;11.79;100.00;99701.78;5049895;28;20033;-57
2023/03/18 00:40:05;;;;;;;16.02;6.13;;;;;;;11.72;100.00;99702.88;5044880;28;20074;-57
2023/03/18 00:42:46;;;;;;;8.98;4.40;;;;;;;11.78;100.00;99694.03;5046368;28;20490;-57
2023/03/18 00:45:12;;;;;;;5.82;4.35;;;;;;;11.83;100.00;99693.41;5046923;28;20581;-56
2023/03/18 00:47:38;;;;;;;18.70;5.70;;;;;;;11.78;100.00;99694.03;5045234;28;20513;-52
2023/03/18 00:50:06;;;;;;;10.52;4.90;;;;;;;11.72;100.00;99697.56;5050412;28;20044;-56
2023/03/18 00:52:32;;;;;;;20.42;7.03;;;;;;;11.67;100.00;99694.75;5040359;28;20492;-57
2023/03/18 00:54:58;;;;;;;13.57;5.82;;;;;;;11.62;100.00;99695.41;5045939;28;20025;-57
2023/03/18 00:57:24;;;;;;;7.95;4.93;;;;;;;11.58;100.00;99689.69;5048916;28;20025;-52
2023/03/18 00:59:50;;;;;;;16.13;5.80;;;;;;;11.58;100.00;99691.56;5047264;28;20044;-56
2023/03/18 01:02:16;;;;;;;10.02;4.70;;;;;;;11.54;100.00;99691.19;5048130;28;20374;-54
2023/03/18 01:04:41;;;;;;;8.45;4.85;;;;;;;11.55;100.00;99684.84;5049927;28;20021;-51
2023/03/18 01:07:07;;;;;;;9.32;5.18;;;;;;;11.62;100.00;99691.94;5049502;28;20032;-56
2023/03/18 01:09:33;;;;;;;10.00;4.68;;;;;;;11.63;100.00;99694.38;5049308;28;20033;-56
2023/03/18 01:11:58;;;;;;;12.60;6.95;;;;;;;11.62;100.00;99689.28;5050047;28;20020;-57
2023/03/18 01:14:24;;;;;;;11.57;4.97;;;;;;;11.60;100.00;99694.00;5048484;28;20033;-54
2023/03/18 01:16:49;;;;;;;6.75;4.90;;;;;;;11.53;100.00;99689.53;5046981;28;20060;-54
2023/03/18 01:19:15;;;;;;;11.98;4.53;;;;;;;11.51;100.00;99691.63;5044861;28;20486;-57
2023/03/18 01:21:40;;;;;;;10.82;5.18;;;;;;;11.61;100.00;99685.00;5048163;28;20061;-54
2023/03/18 01:24:06;;;;;;;9.80;3.55;;;;;;;11.59;100.00;99687.88;5048834;28;20051;-52
2023/03/18 01:26:31;;;;;;;7.95;4.00;;;;;;;11.57;100.00;99674.81;5045996;28;20091;-57
2023/03/18 01:28:58;;;;;;;8.38;3.83;;;;;;;11.63;100.00;99677.63;5042507;28;20037;-57
2023/03/18 01:31:24;;;;;;;6.20;4.32;;;;;;;11.60;100.00;99672.75;5051609;28;20037;-57
2023/03/18 01:33:50;;;;;;;8.50;4.43;;;;;;;11.64;100.00;99669.47;5043994;28;20025;-57
2023/03/18 01:36:16;;;;;;;16.08;5.68;;;;;;;11.65;100.00;99676.38;5049060;28;20265;-54
2023/03/18 01:38:42;;;;;;;15.00;6.03;;;;;;;11.61;100.00;99682.34;5041657;28;20028;-55
2023/03/18 01:41:09;;;;;;;6.40;4.00;;;;;;;11.65;100.00;99678.22;5048083;28;20033;-57
2023/03/18 01:43:37;;;;;;;5.82;4.18;;;;;;;11.74;100.00;99684.88;5050970;28;20044;-54
2023/03/18 01:46:32;;;;;;;7.63;3.88;;;;;;;11.74;100.00;99668.94;5047451;28;20082;-57
2023/03/18 01:48:59;;;;;;;13.15;5.80;;;;;;;11.74;100.00;99674.25;5043001;28;20053;-57
2023/03/18 01:51:25;;;;;;;9.60;4.82;;;;;;;11.84;100.00;99668.44;5041554;28;20025;-55
2023/03/18 01:53:52;;;;;;;5.45;3.45;;;;;;;11.88;100.00;99659.88;5049499;28;20063;-54
2023/03/18 01:56:19;;;;;;;12.02;3.97;;;;;;;11.87;100.00;99657.41;5044727;28;20041;-51
2023/03/18 01:58:50;;;;;;;9.65;4.53;;;;;;;11.89;100.00;99658.00;5049687;28;20028;-52
2023/03/18 02:01:16;;;;;;;9.07;4.68;;;;;;;11.90;100.00;99660.47;5049886;28;20116;-52
2023/03/18 02:03:43;;;;;;;7.57;4.35;;;;;;;11.88;100.00;99657.22;5047783;28;20036;-54
2023/03/18 02:06:11;;;;;;;9.02;4.57;;;;;;;11.88;100.00;99659.06;5047986;28;20044;-56
2023/03/18 02:08:39;;;;;;;5.35;3.08;;;;;;;11.87;100.00;99652.09;5043398;28;20029;-56
2023/03/18 02:11:06;;;;;;;8.00;4.40;;;;;;;11.85;100.00;99643.50;5045563;28;20417;-55
2023/03/18 02:13:36;;;;;;;6.60;3.65;;;;;;;11.84;100.00;99650.66;5048326;28;20033;-56
2023/03/18 02:16:06;;;;;;;7.67;3.67;;;;;;;11.79;100.00;99639.88;5047902;28;20025;-57
2023/03/18 02:18:40;;;;;;;7.32;3.80;;;;;;;11.65;100.00;99649.03;5049831;28;20033;-56
2023/03/18 02:21:21;;;;;;;8.95;3.20;;;;;;;11.49;100.00;99648.53;5047092;28;20134;-54
2023/03/18 02:24:03;;;;;;;6.05;3.10;;;;;;;11.46;100.00;99640.19;5047809;28;20100;-54
2023/03/18 02:26:45;;;;;;;7.50;3.25;;;;;;;11.42;100.00;99655.75;5047570;28;20045;-55
2023/03/18 02:29:13;;;;;;;9.85;3.90;;;;;;;11.44;100.00;99653.69;5045610;28;20112;-57
2023/03/18 02:31:40;;;;;;;7.32;3.58;;;;;;;11.50;100.00;99652.81;5048303;28;20064;-59
2023/03/18 02:34:07;;;;;;;9.18;2.42;;;;;;;11.63;100.00;99641.25;5047322;28;20478;-57
2023/03/18 02:36:35;;;;;;;6.15;3.13;;;;;;;11.66;100.00;99645.31;5047476;28;20117;-53
2023/03/18 02:39:01;;;;;;;7.20;2.78;;;;;;;11.65;100.00;99649.03;5047161;28;20112;-57
2023/03/18 02:41:31;;;;;;;6.93;2.55;;;;;;;11.60;100.00;99649.66;5045303;28;20562;-56
2023/03/18 02:43:57;;;;;;;9.52;2.97;;;;;;;11.67;100.00;99652.25;5045255;28;20021;-57
2023/03/18 02:46:42;;;;;;;11.43;2.00;;;;;;;11.67;100.00;99645.13;5047602;28;20032;-52
2023/03/18 02:49:08;;;;;;;5.28;2.38;;;;;;;11.75;100.00;99649.34;5037645;28;20489;-55
2023/03/18 02:51:36;;;;;;;5.70;2.75;;;;;;;11.79;100.00;99656.63;5046207;28;20026;-57
2023/03/18 02:54:13;;;;;;;2.92;2.30;;;;;;;11.84;100.00;99658.63;5047982;28;20025;-57
2023/03/18 02:56:41;;;;;;;6.55;3.30;;;;;;;11.90;100.00;99655.16;5045322;28;20377;-57
2023/03/18 02:59:06;;;;;;;6.57;2.88;;;;;;;11.96;100.00;99648.94;5045989;28;20404;-54
2023/03/18 03:01:32;;;;;;;8.02;2.15;;;;;;;11.98;100.00;99659.38;5046528;28;20040;-57
2023/03/18 03:03:58;;;;;;;5.72;1.95;;;;;;;12.03;100.00;99656.88;5044378;28;20109;-56
2023/03/18 03:06:24;;;;;;;2.95;1.92;;;;;;;12.07;100.00;99654.56;5045217;28;20032;-52
2023/03/18 03:08:50;;;;;;;4.10;1.48;;;;;;;12.08;100.00;99657.00;5040680;28;20033;-55
2023/03/18 03:11:16;;;;;;;5.47;2.90;;;;;;;12.03;100.00;99659.53;5045888;28;20386;-54
2023/03/18 03:13:44;;;;;;;3.47;1.92;;;;;;;12.07;100.00;99651.91;5043805;28;20032;-58
2023/03/18 03:16:10;;;;;;;8.52;2.22;;;;;;;12.15;100.00;99659.59;5044994;28;20505;-57
2023/03/18 03:18:36;;;;;;;3.30;1.73;;;;;;;12.12;100.00;99655.53;5045118;28;20240;-56
2023/03/18 03:21:02;;;;;;;5.53;1.73;;;;;;;12.13;100.00;99656.31;5042935;28;20033;-58
2023/03/18 03:23:28;;;;;;;7.97;1.95;;;;;;;12.18;100.00;99643.19;5046660;28;20044;-54
2023/03/18 03:25:53;;;;;;;3.25;1.65;;;;;;;12.19;100.00;99653.63;5045681;28;20482;-54
2023/03/18 03:28:20;;;;;;;5.80;1.88;;;;;;;12.20;100.00;99667.72;5045391;28;20147;-57
2023/03/18 03:30:45;;;;;;;4.30;1.00;;;;;;;12.18;100.00;99643.19;5045189;28;20108;-54
2023/03/18 03:33:11;;;;;;;3.65;1.60;;;;;;;12.18;100.00;99653.81;5044620;28;20108;-57
2023/03/18 03:35:37;;;;;;;8.52;2.35;;;;;;;12.12;100.00;99660.84;5049108;28;20060;-55
2023/03/18 03:38:03;;;;;;;10.93;2.15;;;;;;;12.19;100.00;99650.97;5038235;28;20037;-57
2023/03/18 03:40:28;;;;;;;4.03;1.20;;;;;;;12.29;100.00;99662.91;5045975;28;20032;-57
2023/03/18 03:42:54;;;;;;;5.53;1.35;;;;;;;12.28;100.00;99656.78;5036474;28;20468;-56
2023/03/18 03:45:19;;;;;;;3.03;1.08;;;;;;;12.33;100.00;99656.13;5045329;28;20029;-57
2023/03/18 03:47:46;;;;;;;4.97;0.95;;;;;;;12.36;100.00;99659.13;5043990;28;20112;-52
2023/03/18 03:50:12;;;;;;;4.78;1.10;;;;;;;12.38;100.00;99649.09;5037658;28;20025;-56
2023/03/18 03:52:38;;;;;;;6.80;2.15;;;;;;;12.47;100.00;99656.75;5043551;28;20029;-57
2023/03/18 03:55:06;;;;;;;3.20;0.90;;;;;;;12.46;100.00;99663.13;5043770;28;20047;-57
2023/03/18 03:57:31;;;;;;;6.72;1.23;;;;;;;12.41;100.00;99659.28;5044617;28;20034;-52
2023/03/18 03:59:57;;;;;;;4.97;0.52;;;;;;;12.39;100.00;99666.69;5045051;28;20040;-57
2023/03/18 04:02:23;;;;;;;7.28;1.58;;;;;;;12.44;100.00;99658.84;5040017;28;21383;-52
2023/03/18 04:04:49;;;;;;;9.05;2.58;;;;;;;12.42;100.00;99660.91;5040224;28;20033;-56
2023/03/18 04:07:15;;;;;;;3.08;0.65;;;;;;;12.44;100.00;99664.16;5036418;28;20584;-57
2023/03/18 04:09:41;;;;;;;6.75;1.38;;;;;;;12.43;100.00;99662.53;5046788;28;20279;-57
2023/03/18 04:12:07;;;;;;;6.90;1.85;;;;;;;12.44;100.00;99658.84;5042367;28;20057;-53
2023/03/18 04:14:33;;;;;;;14.35;1.98;;;;;;;12.44;100.00;99661.50;5040309;28;20025;-57
2023/03/18 04:16:59;;;;;;;1.42;0.45;;;;;;;12.49;100.00;99660.81;5036701;28;20055;-57
2023/03/18 04:19:26;;;;;;;2.42;0.55;;;;;;;12.39;100.00;99664.03;5048442;28;20069;-53
2023/03/18 04:21:52;;;;;;;3.88;1.95;;;;;;;12.20;100.00;99678.34;5045985;28;20052;-56
2023/03/18 04:24:21;;;;;;;6.28;1.38;;;;;;;12.20;100.00;99681.00;5046150;28;20069;-56
2023/03/18 04:26:47;;;;;;;2.85;1.25;;;;;;;12.24;100.00;99679.53;5044711;28;20044;-59
2023/03/18 04:29:12;;;;;;;2.28;0.40;;;;;;;12.29;100.00;99670.88;5041862;28;20025;-57
2023/03/18 04:31:38;;;;;;;6.57;0.98;;;;;;;12.25;100.00;99665.19;5042307;28;20033;-57
2023/03/18 04:34:04;;;;;;;2.22;0.82;;;;;;;12.23;100.00;99668.06;5041065;28;20021;-57
2023/03/18 04:36:29;;;;;;;7.68;1.25;;;;;;;12.25;100.00;99659.06;5041176;28;20032;-54
2023/03/18 04:38:55;;;;;;;3.47;0.50;;;;;;;12.25;100.00;99667.06;5045473;28;20441;-57
2023/03/18 04:41:21;;;;;;;3.45;0.57;;;;;;;12.20;100.00;99673.81;5049229;28;20061;-57
2023/03/18 04:43:47;;;;;;;6.25;1.23;;;;;;;12.10;100.00;99673.53;5035484;28;20033;-54
2023/03/18 04:46:13;;;;;;;9.10;2.00;;;;;;;12.03;100.00;99679.94;5040770;28;20032;-54
2023/03/18 04:48:39;;;;;;;4.53;1.40;;;;;;;12.00;100.00;99678.53;5046842;28;20032;-55
2023/03/18 04:51:07;;;;;;;4.85;1.25;;;;;;;12.03;100.00;99677.28;5046513;28;20028;-52
2023/03/18 04:53:33;;;;;;;7.70;1.02;;;;;;;12.14;100.00;99674.72;5045922;28;20037;-57
2023/03/18 04:55:59;;;;;;;7.45;0.73;;;;;;;12.13;100.00;99673.09;5038862;28;20065;-54
2023/03/18 04:58:25;;;;;;;3.40;0.75;;;;;;;12.15;100.00;99670.22;5045774;28;20029;-51
2023/03/18 05:00:50;;;;;;;4.10;0.35;;;;;;;12.11;100.00;99669.06;5048503;28;20387;-58
2023/03/18 05:03:15;;;;;;;2.88;0.90;;;;;;;12.11;100.00;99663.72;5043471;28;20038;-57
2023/03/18 05:05:41;;;;;;;3.72;0.75;;;;;;;12.13;100.00;99672.28;5052056;28;20122;-58
2023/03/18 05:08:06;;;;;;;1.02;0.40;;;;;;;12.11;100.00;99669.06;5057577;28;20100;-58
2023/03/18 05:10:32;;;;;;;3.47;0.50;;;;;;;12.16;100.00;99674.50;5049385;28;20057;-57
2023/03/18 05:12:57;;;;;;;6.20;0.70;;;;;;;12.19;100.00;99668.75;5042196;28;20029;-55
2023/03/18 05:15:23;;;;;;;7.53;1.88;;;;;;;12.38;100.00;99665.03;5045477;28;20185;-58
2023/03/18 05:17:48;;;;;;;4.55;1.23;;;;;;;12.42;100.00;99650.28;5043922;28;20430;-53
2023/03/18 05:20:13;;;;;;;12.43;1.35;;;;;;;12.43;100.00;99648.44;5037149;28;20537;-56
2023/03/18 05:22:39;;;;;;;1.30;0.90;;;;;;;12.38;100.00;99658.91;5048070;28;20053;-57
2023/03/18 05:25:06;;;;;;;4.03;1.13;;;;;;;12.36;100.00;99647.69;5048912;28;20029;-53
2023/03/18 05:27:31;;;;;;;6.78;1.02;;;;;;;12.35;100.00;99649.53;5054256;28;20442;-57
2023/03/18 05:29:57;;;;;;;5.70;0.85;;;;;;;12.37;100.00;99642.16;5047773;28;20021;-57
2023/03/18 05:32:23;;;;;;;7.82;0.63;;;;;;;12.42;100.00;99646.81;5045019;28;20439;-55
2023/03/18 05:34:49;;;;;;;3.72;1.25;;;;;;;12.41;100.00;99645.19;5043018;28;20366;-56
2023/03/18 05:37:15;;;;;;;1.27;0.70;;;;;;;12.34;100.00;99637.28;5043936;28;20086;-55
2023/03/18 05:39:41;;;;;;;4.38;1.10;;;;;;;12.38;100.00;99646.44;5040429;28;20056;-57
2023/03/18 05:42:07;;;;;;;2.97;0.40;;;;;;;12.37;100.00;99650.13;5040812;28;20036;-57
2023/03/18 05:44:32;;;;;;;4.50;0.52;;;;;;;12.38;100.00;99646.44;5041540;28;20025;-58
2023/03/18 05:46:58;;;;;;;2.28;0.57;;;;;;;12.32;100.00;99651.84;5052798;28;20424;-54
2023/03/18 05:49:24;;;;;;;4.47;1.58;;;;;;;12.29;100.00;99650.44;5046946;28;20078;-57
2023/03/18 05:51:49;;;;;;;10.98;2.05;;;;;;;12.27;100.00;99663.13;5048145;28;20064;-54
2023/03/18 05:54:16;;;;;;;1.92;0.55;;;;;;;12.34;100.00;99663.03;5051488;28;20174;-53
2023/03/18 05:56:42;;;;;;;3.30;0.55;;;;;;;12.35;100.00;99660.19;5045693;28;20067;-57
2023/03/18 05:59:08;;;;;;;4.70;1.15;;;;;;;12.30;100.00;99656.56;5045817;28;20104;-56
2023/03/18 06:01:35;;;;;;;6.72;1.95;;;;;;;12.42;100.00;99660.09;5050378;28;20410;-56
2023/03/18 06:04:00;;;;;;;4.18;2.47;;;;;;;12.42;100.00;99662.78;5047164;28;20480;-56
2023/03/18 06:06:26;;;;;;;4.32;1.17;;;;;;;12.41;100.00;99664.59;5048481;28;20037;-58
2023/03/18 06:08:52;;;;;;;3.65;1.65;;;;;;;12.34;100.00;99663.88;5042031;28;20029;-57
2023/03/18 06:11:18;;;;;;;5.57;2.40;;;;;;;12.41;100.00;99666.44;5044511;28;20043;-57
2023/03/18 06:13:44;;;;;;;3.90;0.52;;;;;;;12.47;100.00;99667.38;5044731;28;20158;-53
2023/03/18 06:16:10;;;;;;;4.82;0.57;;;;;;;12.43;100.00;99665.19;5048790;28;20037;-56
2023/03/18 06:18:36;;;;;;;2.97;0.80;;;;;;;12.39;100.00;99673.81;5050403;28;20029;-57
2023/03/18 06:21:01;;;;;;;4.65;1.00;;;;;;;12.30;100.00;99675.16;5050700;28;20037;-53
2023/03/18 06:23:26;;;;;;;4.38;0.50;;;;;;;12.28;100.00;99685.19;5041862;28;20060;-56
2023/03/18 06:25:52;;;;;;;7.32;2.85;;;;;;;12.28;100.00;99685.19;5050680;28;20045;-57
2023/03/18 06:28:17;;;;;;;4.15;0.65;;;;;;;12.32;100.00;99689.88;5049700;28;20104;-57
2023/03/18 06:30:43;;;;;;;4.43;0.90;;;;;;;12.27;100.00;99691.56;5050419;28;20032;-56
2023/03/18 06:33:09;;;;;;;4.50;1.35;;;;;;;12.20;100.00;99694.28;5049022;28;20028;-54
2023/03/18 06:35:35;;;;;;;1.08;0.70;;;;;;;12.20;100.00;99697.75;5041689;28;20071;-58
2023/03/18 06:38:01;;;;;;;5.43;0.85;;;;;;;12.23;100.00;99696.50;5040835;28;20470;-57
2023/03/18 06:40:27;;;;;;;6.32;1.13;;;;;;;12.22;100.00;99695.69;5046838;28;20033;-54
2023/03/18 06:42:53;;;;;;;7.88;1.08;;;;;;;12.26;100.00;99701.38;5046052;28;20036;-56
2023/03/18 06:45:20;;;;;;;2.28;1.42;;;;;;;12.32;100.00;99700.50;5046930;28;20025;-51
2023/03/18 06:47:46;;;;;;;4.00;0.98;;;;;;;12.34;100.00;99701.09;5053008;28;20044;-58
2023/03/18 06:50:12;;;;;;;1.55;1.40;;;;;;;12.37;100.00;99703.31;5050408;28;20041;-57
2023/03/18 06:52:38;;;;;;;4.82;0.90;;;;;;;12.33;100.00;99707.44;5043137;28;20017;-54
2023/03/18 06:55:05;;;;;;;6.03;1.75;;;;;;;12.33;100.00;99704.75;5036513;28;20036;-58
2023/03/18 06:57:31;;;;;;;5.60;1.13;;;;;;;12.32;100.00;99705.81;5050735;28;20033;-54
2023/03/18 06:59:57;;;;;;;6.05;1.80;;;;;;;12.33;100.00;99710.09;5042697;28;20029;-55
2023/03/18 07:02:23;;;;;;;2.10;0.70;;;;;;;12.34;100.00;99709.06;5052775;28;20101;-55
2023/03/18 07:04:50;;;;;;;4.90;1.70;;;;;;;12.42;100.00;99715.94;5043655;28;20029;-58
2023/03/18 07:07:15;;;;;;;4.20;0.63;;;;;;;12.55;100.00;99718.44;5046299;28;20035;-55
2023/03/18 07:09:42;;;;;;;9.00;1.10;;;;;;;12.55;100.00;99717.63;5042265;28;20038;-54
2023/03/18 07:12:08;;;;;;;9.65;1.35;;;;;;;12.45;100.00;99728.78;5045861;28;20032;-56
2023/03/18 07:14:34;;;;;;;12.63;3.30;;;;;;;12.39;100.00;99727.81;5044534;28;20386;-57
2023/03/18 07:16:59;;;;;;;4.93;2.25;;;;;;;12.44;100.00;99727.13;5048171;28;20029;-57
2023/03/18 07:19:25;;;;;;;23.63;2.50;;;;;;;12.44;100.00;99727.13;5045699;28;20079;-56
2023/03/18 07:21:50;;;;;;;5.45;1.90;;;;;;;12.44;100.00;99732.47;5041236;28;20034;-52
2023/03/18 07:24:16;;;;;;;6.68;1.25;;;;;;;12.50;100.00;99736.09;5044783;28;20629;-54
2023/03/18 07:26:42;;;;;;;3.95;1.10;;;;;;;12.52;100.00;99734.84;5043831;28;20390;-57
2023/03/18 07:29:07;;;;;;;10.10;1.25;;;;;;;12.50;100.00;99730.78;5053007;28;20123;-56
2023/03/18 07:31:33;;;;;;;9.57;1.63;;;;;;;12.53;100.00;99730.34;5046242;28;20470;-57
2023/03/18 07:33:58;;;;;;;5.25;1.52;;;;;;;12.56;100.00;99729.88;5047497;28;20101;-53
2023/03/18 07:36:24;;;;;;;4.75;0.88;;;;;;;12.60;100.00;99718.59;5052320;28;20711;-57
2023/03/18 07:38:50;;;;;;;1.98;0.30;;;;;;;12.59;100.00;99730.25;5049755;28;20044;-57
2023/03/18 07:41:15;;;;;;;5.25;1.38;;;;;;;12.69;100.00;99728.91;5047829;28;20025;-54
2023/03/18 07:43:42;;;;;;;3.25;0.82;;;;;;;12.74;100.00;99729.06;5056394;28;20496;-52
2023/03/18 07:46:07;;;;;;;3.10;0.60;;;;;;;12.77;100.00;99734.75;5050436;28;20111;-51
2023/03/18 07:48:33;;;;;;;2.13;0.50;;;;;;;12.79;100.00;99735.34;5055463;28;20604;-56
2023/03/18 07:50:59;;;;;;;6.60;1.48;;;;;;;12.73;100.00;99730.09;5044822;28;20037;-54
2023/03/18 07:53:26;;;;;;;0.50;0.50;;;;;;;12.75;100.00;99734.16;5046243;28;20056;-55
2023/03/18 07:55:52;;;;;;;3.03;1.67;;;;;;;12.76;100.00;99735.78;5047818;28;20145;-56
2023/03/18 07:58:17;;;;;;;3.72;2.00;;;;;;;12.60;100.00;99739.88;5053265;28;20454;-55
2023/03/18 08:00:43;;;;;;;4.72;1.00;;;;;;;12.68;100.00;99730.78;5043806;28;20461;-57
2023/03/18 08:03:10;;;;;;;4.15;2.05;;;;;;;12.66;100.00;99736.31;5054714;28;20051;-58
2023/03/18 08:05:36;;;;;;;5.78;0.95;;;;;;;12.69;100.00;99732.38;5050945;28;20056;-57
2023/03/18 08:08:01;;;;;;;9.38;1.67;;;;;;;12.71;100.00;99732.19;5038867;28;20501;-55
2023/03/18 08:10:27;;;;;;;2.38;1.00;;;;;;;12.57;100.00;99739.47;5042376;28;20045;-57
2023/03/18 08:12:53;;;;;;;4.35;3.22;;;;;;;12.63;100.00;99746.59;5042408;28;20091;-54
2023/03/18 08:15:18;;;;;;;3.85;1.55;;;;;;;12.66;100.00;99744.28;5037098;28;20033;-58
2023/03/18 08:17:43;;;;;;;3.53;1.58;;;;;;;12.68;100.00;99738.75;5040701;28;20147;-55
2023/03/18 08:20:11;;;;;;;4.97;1.30;;;;;;;12.64;100.00;99742.88;5045576;28;20128;-54
2023/03/18 08:22:36;;;;;;;3.25;1.55;;;;;;;12.58;100.00;99746.44;5042934;28;20801;-57
2023/03/18 08:25:02;;;;;;;12.82;2.63;;;;;;;12.56;100.00;99749.31;5051518;28;20181;-55
2023/03/18 08:27:27;;;;;;;10.23;2.13;;;;;;;12.60;100.00;99739.88;5050391;28;20052;-57
2023/03/18 08:29:53;;;;;;;4.35;1.75;;;;;;;12.67;100.00;99747.75;5044164;28;20063;-57
2023/03/18 08:32:19;;;;;;;5.13;1.92;;;;;;;12.72;100.00;99750.56;5045357;28;20056;-55
2023/03/18 08:34:44;;;;;;;6.72;2.42;;;;;;;12.72;100.00;99745.22;5044481;28;20611;-57
2023/03/18 08:37:10;;;;;;;5.97;2.60;;;;;;;12.70;100.00;99749.16;5046147;28;20401;-57
2023/03/18 08:39:36;;;;;;;2.67;1.40;;;;;;;12.64;100.00;99749.00;5040779;28;20020;-57
2023/03/18 08:42:03;;;;;;;6.97;2.30;;;;;;;12.61;100.00;99753.97;5041916;28;20128;-57
2023/03/18 08:44:29;;;;;;;4.85;2.53;;;;;;;12.60;100.00;99753.16;5043658;28;20043;-57
2023/03/18 08:46:55;;;;;;;4.53;1.88;;;;;;;12.58;100.00;99749.91;5045203;28;20029;-56
2023/03/18 08:49:20;;;;;;;4.63;2.10;;;;;;;12.61;100.00;99749.44;5040256;28;20029;-56
2023/03/18 08:51:46;;;;;;;4.45;1.77;;;;;;;12.70;100.00;99752.66;5041828;28;20056;-54
2023/03/18 08:54:12;;;;;;;4.15;2.47;;;;;;;12.74;100.00;99755.66;5042665;28;20032;-55
2023/03/18 08:56:37;;;;;;;4.10;1.63;;;;;;;12.76;100.00;99748.28;5042429;28;20106;-56
2023/03/18 08:59:03;;;;;;;5.90;2.00;;;;;;;12.68;100.00;99760.03;5040156;28;20025;-51
2023/03/18 09:01:29;;;;;;;7.50;3.55;;;;;;;12.64;100.00;99759.63;5045714;28;20436;-55
2023/03/18 09:03:56;;;;;;;5.43;2.42;;;;;;;12.62;100.00;99752.91;5043716;28;20528;-52
2023/03/18 09:06:22;;;;;;;11.43;2.17;;;;;;;12.61;100.00;99754.78;5045691;28;20021;-53
2023/03/18 09:08:47;;;;;;;2.80;1.50;;;;;;;12.75;100.00;99755.44;5045506;28;20041;-51
2023/03/18 09:11:12;;;;;;;3.92;2.53;;;;;;;12.73;100.00;99760.19;5044581;28;20026;-54
2023/03/18 09:13:38;;;;;;;4.07;2.05;;;;;;;12.82;100.00;99760.69;5040240;28;20033;-56
2023/03/18 09:16:04;;;;;;;2.95;1.63;;;;;;;12.81;100.00;99759.06;5038230;28;20038;-50
2023/03/18 09:18:30;;;;;;;4.45;1.67;;;;;;;12.85;100.00;99755.72;5042570;28;20025;-51
2023/03/18 09:20:56;;;;;;;5.82;1.75;;;;;;;12.81;100.00;99757.22;5039225;28;20490;-51
2023/03/18 09:23:21;;;;;;;2.08;1.08;;;;;;;12.85;100.00;99753.06;5045574;28;20465;-55
2023/03/18 09:25:48;;;;;;;2.50;1.60;;;;;;;12.85;100.00;99754.91;5047511;28;20036;-52
2023/03/18 09:28:15;;;;;;;7.53;2.13;;;;;;;12.86;100.00;99757.34;5044363;28;20489;-55
2023/03/18 09:30:41;;;;;;;3.47;1.42;;;;;;;12.79;100.00;99756.63;5045482;28;20029;-55
2023/03/18 09:33:08;;;;;;;6.65;2.72;;;;;;;12.71;100.00;99756.91;5043971;28;20426;-52
2023/03/18 09:35:35;;;;;;;3.95;1.20;;;;;;;12.51;100.00;99766.97;5043985;28;20206;-53
2023/03/18 09:38:01;;;;;;;1.80;0.98;;;;;;;12.48;100.00;99772.72;5046263;28;20511;-51
2023/03/18 09:40:31;;;;;;;2.55;1.90;;;;;;;12.51;100.00;99764.31;5041841;28;20036;-52
2023/03/18 09:43:21;;;;;;;1.13;0.80;;;;;;;12.52;100.00;99761.44;5051380;28;20033;-52
2023/03/18 09:45:53;;;;;;;0.93;0.73;;;;;;;12.54;100.00;99766.50;5050774;28;20041;-52
2023/03/18 09:49:00;;;;;;;0.65;0.43;;;;;;;12.58;100.00;99770.38;5046914;28;20056;-54
2023/03/18 09:51:37;;;;;;;0.70;0.60;;;;;;;12.55;100.00;99771.63;5032713;28;20049;-54
2023/03/18 09:54:21;;;;;;;1.30;1.15;;;;;;;12.57;100.00;99774.03;5044441;28;20021;-53
2023/03/18 09:56:47;;;;;;;2.75;1.45;;;;;;;12.55;100.00;99768.97;5046951;28;20431;-55
2023/03/18 09:59:20;;;;;;;1.10;0.22;;;;;;;12.61;100.00;99775.25;5043651;28;20040;-51
2023/03/18 10:01:48;;;;;;;1.55;0.55;;;;;;;12.75;100.00;99774.06;5042603;28;20036;-51
2023/03/18 10:04:22;;;;;;;0.45;0.45;;;;;;;12.80;100.00;99776.03;5047364;28;20409;-56
2023/03/18 10:06:52;;;;;;;2.40;0.20;;;;;;;12.82;100.00;99777.44;5042656;28;20025;-55
2023/03/18 10:09:41;;;;;;;1.17;0.20;;;;;;;12.84;100.00;99780.69;5049898;28;20029;-52
2023/03/18 10:12:46;;;;;;;0.57;0.32;;;;;;;12.85;100.00;99782.31;5054555;28;20082;-54
2023/03/18 10:15:17;;;;;;;1.10;0.40;;;;;;;12.77;100.00;99774.63;4997580;28;20057;-51
2023/03/18 10:18:02;;;;;;;1.13;0.22;;;;;;;12.82;100.00;99779.28;5037214;28;20037;-51
2023/03/18 10:20:41;;;;;;;0.63;0.30;;;;;;;12.81;100.00;99785.66;5043808;28;20129;-55
2023/03/18 10:23:48;;;;;;;1.67;1.33;;;;;;;12.94;100.00;99779.38;5044571;28;20017;-52
2023/03/18 10:26:28;;;;;;;0.57;0.00;;;;;;;13.01;100.00;99777.41;5047649;28;20162;-52
2023/03/18 10:29:33;;;;;;;0.32;0.20;;;;;;;13.15;100.00;99786.88;5050388;28;20025;-52
2023/03/18 10:32:27;;;;;;;0.60;0.20;;;;;;;13.24;100.00;99780.22;5042354;28;20032;-53
2023/03/18 10:35:00;;;;;;;0.40;0.30;;;;;;;13.21;100.00;99785.97;5045250;28;20128;-54
2023/03/18 10:37:34;;;;;;;0.30;0.10;;;;;;;13.27;100.00;99787.78;5045410;28;20029;-51
2023/03/18 10:40:01;;;;;;;0.65;0.13;;;;;;;13.30;100.00;99791.84;5046938;28;20025;-52
2023/03/18 10:42:30;;;;;;;1.17;0.00;;;;;;;13.28;100.00;99789.38;5051441;28;20052;-51
2023/03/18 10:45:07;;;;;;;1.90;0.98;;;;;;;13.29;100.00;99792.84;5053958;28;20033;-52
2023/03/18 10:47:37;;;;;;;1.00;0.10;;;;;;;13.37;100.00;99791.72;5043334;28;20032;-49
2023/03/18 10:50:17;;;;;;;0.35;0.20;;;;;;;13.27;100.00;99794.97;5045167;28;20052;-52
2023/03/18 10:52:53;;;;;;;1.27;0.25;;;;;;;13.20;100.00;99795.00;5046450;28;20029;-51
2023/03/18 10:55:24;;;;;;;0.85;0.20;;;;;;;13.08;100.00;99807.44;5048095;28;20036;-53
2023/03/18 10:57:49;;;;;;;0.10;0.10;;;;;;;13.01;100.00;99801.38;5040191;28;20038;-52
2023/03/18 11:00:36;;;;;;;1.20;0.15;;;;;;;13.21;100.00;99804.59;5046482;28;20044;-56
2023/03/18 11:03:04;;;;;;;0.60;0.13;;;;;;;13.18;100.00;99802.41;5048906;28;20044;-54
2023/03/18 11:05:34;;;;;;;1.45;0.10;;;;;;;13.14;100.00;99801.22;5049700;28;20041;-52
2023/03/18 11:08:07;;;;;;;0.10;0.00;;;;;;;13.10;100.00;99814.16;5044820;28;20079;-55
2023/03/18 11:10:42;;;;;;;0.20;0.20;;;;;;;13.00;100.00;99811.22;5047168;28;20151;-52
2023/03/18 11:13:16;;;;;;;0.10;0.00;;;;;;;12.96;100.00;99809.22;5047099;28;20114;-53
2023/03/18 11:15:48;;;;;;;2.60;0.00;;;;;;;12.86;100.00;99807.91;5044314;28;20020;-49
2023/03/18 11:18:16;;;;;;;2.05;0.20;;;;;;;12.81;100.00;99809.59;5044717;28;20104;-50
2023/03/18 11:20:44;;;;;;;3.35;0.00;;;;;;;12.79;100.00;99809.81;5045114;28;20147;-53
2023/03/18 11:23:19;;;;;;;0.15;0.00;;;;;;;12.78;100.00;99813.53;5043033;28;20104;-50
2023/03/18 11:25:54;;;;;;;1.45;0.28;;;;;;;12.69;100.00;99809.50;5040445;28;20561;-52
2023/03/18 11:28:22;;;;;;;2.33;0.00;;;;;;;12.77;100.00;99811.06;5045062;28;20417;-50